sensor_id;sensor_type;location;lat;lon;timestamp;temperature;humidity
36292;DHT22;22327;51.208;6.418;2024-03-08T00:00:18;7.20;93.30
36292;DHT22;22327;51.208;6.418;2024-03-08T00:03:19;7.10;93.30
36292;DHT22;22327;51.208;6.418;2024-03-08T00:06:20;7.10;93.40
36292;DHT22;22327;51.208;6.418;2024-03-08T00:09:20;7.00;93.50
36292;DHT22;22327;51.208;6.418;2024-03-08T00:12:21;7.00;93.60
36292;DHT22;22327;51.208;6.418;2024-03-08T00:15:22;7.00;93.70
36292;DHT22;22327;51.208;6.418;2024-03-08T00:18:23;6.90;93.70
36292;DHT22;22327;51.208;6.418;2024-03-08T00:21:23;6.80;93.70
36292;DHT22;22327;51.208;6.418;2024-03-08T00:24:24;6.80;94.00
36292;DHT22;22327;51.208;6.418;2024-03-08T00:27:25;6.70;94.00
36292;DHT22;22327;51.208;6.418;2024-03-08T00:30:26;6.70;94.10
36292;DHT22;22327;51.208;6.418;2024-03-08T00:33:26;6.70;94.30
36292;DHT22;22327;51.208;6.418;2024-03-08T00:36:27;6.70;94.30
36292;DHT22;22327;51.208;6.418;2024-03-08T00:39:30;6.70;94.30
36292;DHT22;22327;51.208;6.418;2024-03-08T00:42:31;6.70;94.30
36292;DHT22;22327;51.208;6.418;2024-03-08T00:45:31;6.60;94.40
36292;DHT22;22327;51.208;6.418;2024-03-08T00:48:32;6.50;94.50
36292;DHT22;22327;51.208;6.418;2024-03-08T00:51:32;6.50;94.50
36292;DHT22;22327;51.208;6.418;2024-03-08T00:54:33;6.50;94.60
36292;DHT22;22327;51.208;6.418;2024-03-08T00:57:34;6.50;94.50
36292;DHT22;22327;51.208;6.418;2024-03-08T01:00:35;6.50;94.60
36292;DHT22;22327;51.208;6.418;2024-03-08T01:03:36;6.40;94.60
36292;DHT22;22327;51.208;6.418;2024-03-08T01:06:36;6.40;94.70
36292;DHT22;22327;51.208;6.418;2024-03-08T01:09:37;6.40;94.80
36292;DHT22;22327;51.208;6.418;2024-03-08T01:12:38;6.30;94.80
36292;DHT22;22327;51.208;6.418;2024-03-08T01:15:39;6.30;94.90
36292;DHT22;22327;51.208;6.418;2024-03-08T01:18:41;6.20;94.90
36292;DHT22;22327;51.208;6.418;2024-03-08T01:21:42;6.30;94.90
36292;DHT22;22327;51.208;6.418;2024-03-08T01:24:42;6.30;95.00
36292;DHT22;22327;51.208;6.418;2024-03-08T01:27:43;6.20;94.90
36292;DHT22;22327;51.208;6.418;2024-03-08T01:30:43;6.20;94.90
36292;DHT22;22327;51.208;6.418;2024-03-08T01:33:45;6.30;95.00
36292;DHT22;22327;51.208;6.418;2024-03-08T01:36:46;6.20;95.00
36292;DHT22;22327;51.208;6.418;2024-03-08T01:39:46;6.10;95.10
36292;DHT22;22327;51.208;6.418;2024-03-08T01:42:47;6.10;95.00
36292;DHT22;22327;51.208;6.418;2024-03-08T01:45:48;6.10;95.10
36292;DHT22;22327;51.208;6.418;2024-03-08T01:48:49;6.20;95.10
36292;DHT22;22327;51.208;6.418;2024-03-08T01:51:51;6.10;95.00
36292;DHT22;22327;51.208;6.418;2024-03-08T01:54:52;6.00;95.10
36292;DHT22;22327;51.208;6.418;2024-03-08T01:57:52;5.90;95.20
36292;DHT22;22327;51.208;6.418;2024-03-08T02:00:53;6.00;95.20
36292;DHT22;22327;51.208;6.418;2024-03-08T02:03:54;6.00;95.00
36292;DHT22;22327;51.208;6.418;2024-03-08T02:06:54;6.10;95.00
36292;DHT22;22327;51.208;6.418;2024-03-08T02:09:55;6.00;94.90
36292;DHT22;22327;51.208;6.418;2024-03-08T02:12:55;6.00;95.00
36292;DHT22;22327;51.208;6.418;2024-03-08T02:15:58;5.90;95.20
36292;DHT22;22327;51.208;6.418;2024-03-08T02:19:01;5.90;95.10
36292;DHT22;22327;51.208;6.418;2024-03-08T02:22:02;6.00;95.10
36292;DHT22;22327;51.208;6.418;2024-03-08T02:25:05;5.90;95.10
36292;DHT22;22327;51.208;6.418;2024-03-08T02:28:06;6.00;95.00
36292;DHT22;22327;51.208;6.418;2024-03-08T02:31:08;6.10;94.90
36292;DHT22;22327;51.208;6.418;2024-03-08T02:34:08;6.00;94.90
36292;DHT22;22327;51.208;6.418;2024-03-08T02:37:09;6.00;94.90
36292;DHT22;22327;51.208;6.418;2024-03-08T02:40:10;5.90;95.00
36292;DHT22;22327;51.208;6.418;2024-03-08T02:43:13;5.90;95.10
36292;DHT22;22327;51.208;6.418;2024-03-08T02:46:14;5.90;95.20
36292;DHT22;22327;51.208;6.418;2024-03-08T02:49:15;5.80;95.20
36292;DHT22;22327;51.208;6.418;2024-03-08T02:52:16;5.80;95.20
36292;DHT22;22327;51.208;6.418;2024-03-08T02:55:17;5.80;95.30
36292;DHT22;22327;51.208;6.418;2024-03-08T02:58:17;5.80;95.40
36292;DHT22;22327;51.208;6.418;2024-03-08T03:01:18;5.80;95.30
36292;DHT22;22327;51.208;6.418;2024-03-08T03:04:20;5.70;95.40
36292;DHT22;22327;51.208;6.418;2024-03-08T03:07:21;5.70;95.50
36292;DHT22;22327;51.208;6.418;2024-03-08T03:10:22;5.70;95.40
36292;DHT22;22327;51.208;6.418;2024-03-08T03:13:22;5.70;95.50
36292;DHT22;22327;51.208;6.418;2024-03-08T03:16:23;5.70;95.50
36292;DHT22;22327;51.208;6.418;2024-03-08T03:19:24;5.70;95.50
36292;DHT22;22327;51.208;6.418;2024-03-08T03:22:25;5.60;95.60
36292;DHT22;22327;51.208;6.418;2024-03-08T03:25:25;5.70;95.50
36292;DHT22;22327;51.208;6.418;2024-03-08T03:28:29;5.70;95.90
36292;DHT22;22327;51.208;6.418;2024-03-08T03:31:29;5.70;95.50
36292;DHT22;22327;51.208;6.418;2024-03-08T03:34:31;5.70;95.50
36292;DHT22;22327;51.208;6.418;2024-03-08T03:37:32;5.60;95.50
36292;DHT22;22327;51.208;6.418;2024-03-08T03:40:34;5.60;95.60
36292;DHT22;22327;51.208;6.418;2024-03-08T03:43:34;5.60;95.70
36292;DHT22;22327;51.208;6.418;2024-03-08T03:46:35;5.50;95.80
36292;DHT22;22327;51.208;6.418;2024-03-08T03:49:36;5.50;95.90
36292;DHT22;22327;51.208;6.418;2024-03-08T03:52:36;5.40;96.00
36292;DHT22;22327;51.208;6.418;2024-03-08T03:55:37;5.30;96.30
36292;DHT22;22327;51.208;6.418;2024-03-08T03:58:38;5.20;96.40
36292;DHT22;22327;51.208;6.418;2024-03-08T04:01:42;5.20;96.60
36292;DHT22;22327;51.208;6.418;2024-03-08T04:04:43;5.20;96.70
36292;DHT22;22327;51.208;6.418;2024-03-08T04:07:45;5.10;96.80
36292;DHT22;22327;51.208;6.418;2024-03-08T04:10:46;5.10;96.80
36292;DHT22;22327;51.208;6.418;2024-03-08T04:13:46;5.10;96.90
36292;DHT22;22327;51.208;6.418;2024-03-08T04:16:47;5.20;97.00
36292;DHT22;22327;51.208;6.418;2024-03-08T04:19:48;5.20;96.90
36292;DHT22;22327;51.208;6.418;2024-03-08T04:22:49;5.20;96.80
36292;DHT22;22327;51.208;6.418;2024-03-08T04:25:49;5.20;96.90
36292;DHT22;22327;51.208;6.418;2024-03-08T04:28:50;5.20;97.00
36292;DHT22;22327;51.208;6.418;2024-03-08T04:31:50;5.20;97.00
36292;DHT22;22327;51.208;6.418;2024-03-08T04:34:54;5.20;97.00
36292;DHT22;22327;51.208;6.418;2024-03-08T04:37:54;5.20;97.00
36292;DHT22;22327;51.208;6.418;2024-03-08T04:40:55;5.20;96.90
36292;DHT22;22327;51.208;6.418;2024-03-08T04:43:57;5.20;96.90
36292;DHT22;22327;51.208;6.418;2024-03-08T04:46:58;5.20;97.30
36292;DHT22;22327;51.208;6.418;2024-03-08T04:49:58;5.20;97.00
36292;DHT22;22327;51.208;6.418;2024-03-08T04:52:59;5.30;96.90
36292;DHT22;22327;51.208;6.418;2024-03-08T04:56:00;5.20;96.80
36292;DHT22;22327;51.208;6.418;2024-03-08T04:59:06;5.20;96.80
36292;DHT22;22327;51.208;6.418;2024-03-08T05:02:08;5.20;96.80
36292;DHT22;22327;51.208;6.418;2024-03-08T05:05:09;5.20;96.90
36292;DHT22;22327;51.208;6.418;2024-03-08T05:08:12;5.10;97.00
36292;DHT22;22327;51.208;6.418;2024-03-08T05:11:13;5.10;97.10
36292;DHT22;22327;51.208;6.418;2024-03-08T05:14:15;5.00;97.20
36292;DHT22;22327;51.208;6.418;2024-03-08T05:17:20;4.90;97.40
36292;DHT22;22327;51.208;6.418;2024-03-08T05:20:20;4.90;97.50
36292;DHT22;22327;51.208;6.418;2024-03-08T05:23:22;4.90;97.70
36292;DHT22;22327;51.208;6.418;2024-03-08T05:26:23;4.80;97.70
36292;DHT22;22327;51.208;6.418;2024-03-08T05:29:23;4.90;97.60
36292;DHT22;22327;51.208;6.418;2024-03-08T05:32:24;4.90;97.50
36292;DHT22;22327;51.208;6.418;2024-03-08T05:35:25;4.90;97.60
36292;DHT22;22327;51.208;6.418;2024-03-08T05:38:25;4.80;97.80
36292;DHT22;22327;51.208;6.418;2024-03-08T05:41:26;4.80;97.90
36292;DHT22;22327;51.208;6.418;2024-03-08T05:44:26;4.70;97.90
36292;DHT22;22327;51.208;6.418;2024-03-08T05:47:29;4.70;98.00
36292;DHT22;22327;51.208;6.418;2024-03-08T05:50:29;4.70;98.10
36292;DHT22;22327;51.208;6.418;2024-03-08T05:53:29;4.70;98.40
36292;DHT22;22327;51.208;6.418;2024-03-08T05:56:33;4.80;98.10
36292;DHT22;22327;51.208;6.418;2024-03-08T05:59:33;4.80;98.10
36292;DHT22;22327;51.208;6.418;2024-03-08T06:02:34;4.70;98.10
36292;DHT22;22327;51.208;6.418;2024-03-08T06:05:36;4.60;98.20
36292;DHT22;22327;51.208;6.418;2024-03-08T06:08:38;4.70;98.40
36292;DHT22;22327;51.208;6.418;2024-03-08T06:11:39;4.70;98.40
36292;DHT22;22327;51.208;6.418;2024-03-08T06:14:39;4.70;98.30
36292;DHT22;22327;51.208;6.418;2024-03-08T06:17:43;4.70;98.40
36292;DHT22;22327;51.208;6.418;2024-03-08T06:20:43;4.80;98.40
36292;DHT22;22327;51.208;6.418;2024-03-08T06:23:44;4.90;98.40
36292;DHT22;22327;51.208;6.418;2024-03-08T06:26:44;5.00;98.60
36292;DHT22;22327;51.208;6.418;2024-03-08T06:29:45;5.20;98.80
36292;DHT22;22327;51.208;6.418;2024-03-08T06:32:45;5.40;98.60
36292;DHT22;22327;51.208;6.418;2024-03-08T06:35:46;5.50;98.50
36292;DHT22;22327;51.208;6.418;2024-03-08T06:38:46;5.60;98.20
36292;DHT22;22327;51.208;6.418;2024-03-08T06:41:47;5.90;98.00
36292;DHT22;22327;51.208;6.418;2024-03-08T06:44:47;6.10;98.00
36292;DHT22;22327;51.208;6.418;2024-03-08T06:47:51;6.30;97.60
36292;DHT22;22327;51.208;6.418;2024-03-08T06:50:52;6.50;97.00
36292;DHT22;22327;51.208;6.418;2024-03-08T06:53:52;6.80;97.00
36292;DHT22;22327;51.208;6.418;2024-03-08T06:56:53;7.10;96.70
36292;DHT22;22327;51.208;6.418;2024-03-08T06:59:53;7.40;95.80
36292;DHT22;22327;51.208;6.418;2024-03-08T07:02:54;7.60;95.00
36292;DHT22;22327;51.208;6.418;2024-03-08T07:05:56;7.70;94.70
36292;DHT22;22327;51.208;6.418;2024-03-08T07:08:58;7.80;94.10
36292;DHT22;22327;51.208;6.418;2024-03-08T07:11:59;7.90;93.90
36292;DHT22;22327;51.208;6.418;2024-03-08T07:15:00;8.10;93.50
36292;DHT22;22327;51.208;6.418;2024-03-08T07:18:01;8.20;93.20
36292;DHT22;22327;51.208;6.418;2024-03-08T07:21:02;8.30;93.30
36292;DHT22;22327;51.208;6.418;2024-03-08T07:24:04;8.50;92.70
36292;DHT22;22327;51.208;6.418;2024-03-08T07:27:22;8.60;92.50
36292;DHT22;22327;51.208;6.418;2024-03-08T07:30:25;8.70;92.20
36292;DHT22;22327;51.208;6.418;2024-03-08T07:33:44;8.70;92.20
36292;DHT22;22327;51.208;6.418;2024-03-08T07:36:44;8.70;91.90
36292;DHT22;22327;51.208;6.418;2024-03-08T07:39:45;8.70;92.00
36292;DHT22;22327;51.208;6.418;2024-03-08T07:42:45;8.70;91.90
36292;DHT22;22327;51.208;6.418;2024-03-08T07:45:46;8.90;92.10
36292;DHT22;22327;51.208;6.418;2024-03-08T07:48:46;9.10;91.30
36292;DHT22;22327;51.208;6.418;2024-03-08T07:51:47;9.00;90.90
36292;DHT22;22327;51.208;6.418;2024-03-08T07:54:47;9.10;90.90
36292;DHT22;22327;51.208;6.418;2024-03-08T07:57:48;8.90;91.10
36292;DHT22;22327;51.208;6.418;2024-03-08T08:00:48;8.90;91.30
36292;DHT22;22327;51.208;6.418;2024-03-08T08:03:49;8.90;91.20
36292;DHT22;22327;51.208;6.418;2024-03-08T08:06:50;8.90;91.50
36292;DHT22;22327;51.208;6.418;2024-03-08T08:09:53;9.10;91.40
36292;DHT22;22327;51.208;6.418;2024-03-08T08:12:53;9.20;91.20
36292;DHT22;22327;51.208;6.418;2024-03-08T08:15:54;9.50;90.90
36292;DHT22;22327;51.208;6.418;2024-03-08T08:18:54;9.70;90.60
36292;DHT22;22327;51.208;6.418;2024-03-08T08:21:55;9.90;90.40
36292;DHT22;22327;51.208;6.418;2024-03-08T08:24:56;10.20;90.00
36292;DHT22;22327;51.208;6.418;2024-03-08T08:27:56;10.50;89.60
36292;DHT22;22327;51.208;6.418;2024-03-08T08:30:57;10.90;89.40
36292;DHT22;22327;51.208;6.418;2024-03-08T08:33:57;11.00;88.30
36292;DHT22;22327;51.208;6.418;2024-03-08T08:37:01;11.20;86.10
36292;DHT22;22327;51.208;6.418;2024-03-08T08:40:01;11.30;86.10
36292;DHT22;22327;51.208;6.418;2024-03-08T08:43:06;11.30;86.60
36292;DHT22;22327;51.208;6.418;2024-03-08T08:46:07;11.30;86.10
36292;DHT22;22327;51.208;6.418;2024-03-08T08:49:08;11.30;85.10
36292;DHT22;22327;51.208;6.418;2024-03-08T08:52:10;11.20;85.60
36292;DHT22;22327;51.208;6.418;2024-03-08T08:55:11;11.20;85.70
36292;DHT22;22327;51.208;6.418;2024-03-08T08:58:14;11.20;85.80
36292;DHT22;22327;51.208;6.418;2024-03-08T09:01:15;11.40;86.10
36292;DHT22;22327;51.208;6.418;2024-03-08T09:04:19;11.70;84.90
36292;DHT22;22327;51.208;6.418;2024-03-08T09:07:19;11.90;82.90
36292;DHT22;22327;51.208;6.418;2024-03-08T09:10:20;12.40;83.40
36292;DHT22;22327;51.208;6.418;2024-03-08T09:13:21;12.80;81.00
36292;DHT22;22327;51.208;6.418;2024-03-08T09:16:22;13.20;79.60
36292;DHT22;22327;51.208;6.418;2024-03-08T09:19:23;13.90;76.50
36292;DHT22;22327;51.208;6.418;2024-03-08T09:22:26;14.40;72.90
36292;DHT22;22327;51.208;6.418;2024-03-08T09:25:26;15.00;71.30
36292;DHT22;22327;51.208;6.418;2024-03-08T09:28:28;15.10;68.40
36292;DHT22;22327;51.208;6.418;2024-03-08T09:31:29;15.30;68.60
36292;DHT22;22327;51.208;6.418;2024-03-08T09:34:30;15.40;66.20
36292;DHT22;22327;51.208;6.418;2024-03-08T09:37:31;15.40;67.30
36292;DHT22;22327;51.208;6.418;2024-03-08T09:40:31;15.60;65.90
36292;DHT22;22327;51.208;6.418;2024-03-08T09:43:33;15.60;65.70
36292;DHT22;22327;51.208;6.418;2024-03-08T09:46:33;15.60;66.00
36292;DHT22;22327;51.208;6.418;2024-03-08T09:49:34;15.80;64.70
36292;DHT22;22327;51.208;6.418;2024-03-08T09:52:36;15.90;64.00
36292;DHT22;22327;51.208;6.418;2024-03-08T09:55:38;16.00;63.20
36292;DHT22;22327;51.208;6.418;2024-03-08T09:58:42;16.10;64.00
36292;DHT22;22327;51.208;6.418;2024-03-08T10:01:58;16.20;62.70
36292;DHT22;22327;51.208;6.418;2024-03-08T10:05:01;15.60;62.00
36292;DHT22;22327;51.208;6.418;2024-03-08T10:08:04;14.90;62.80
36292;DHT22;22327;51.208;6.418;2024-03-08T10:11:07;14.20;66.00
36292;DHT22;22327;51.208;6.418;2024-03-08T10:14:09;13.80;67.80
36292;DHT22;22327;51.208;6.418;2024-03-08T10:17:10;13.70;68.10
36292;DHT22;22327;51.208;6.418;2024-03-08T10:20:14;13.20;69.60
36292;DHT22;22327;51.208;6.418;2024-03-08T10:23:15;13.00;71.00
36292;DHT22;22327;51.208;6.418;2024-03-08T10:26:18;12.80;70.80
36292;DHT22;22327;51.208;6.418;2024-03-08T10:29:20;12.60;71.10
36292;DHT22;22327;51.208;6.418;2024-03-08T10:32:21;12.50;71.80
36292;DHT22;22327;51.208;6.418;2024-03-08T10:35:22;12.40;71.80
36292;DHT22;22327;51.208;6.418;2024-03-08T10:38:23;12.30;72.00
36292;DHT22;22327;51.208;6.418;2024-03-08T10:41:24;12.20;72.50
36292;DHT22;22327;51.208;6.418;2024-03-08T10:47:33;12.00;73.20
36292;DHT22;22327;51.208;6.418;2024-03-08T10:50:39;11.90;73.00
36292;DHT22;22327;51.208;6.418;2024-03-08T10:53:41;11.90;74.10
36292;DHT22;22327;51.208;6.418;2024-03-08T10:56:42;12.00;73.20
36292;DHT22;22327;51.208;6.418;2024-03-08T10:59:43;12.00;73.50
36292;DHT22;22327;51.208;6.418;2024-03-08T11:02:44;12.10;73.50
36292;DHT22;22327;51.208;6.418;2024-03-08T11:05:45;12.20;73.10
36292;DHT22;22327;51.208;6.418;2024-03-08T11:08:48;12.20;71.40
36292;DHT22;22327;51.208;6.418;2024-03-08T11:11:50;12.20;72.50
36292;DHT22;22327;51.208;6.418;2024-03-08T11:14:52;12.10;72.60
36292;DHT22;22327;51.208;6.418;2024-03-08T11:17:53;12.20;72.60
36292;DHT22;22327;51.208;6.418;2024-03-08T11:20:58;12.20;73.20
36292;DHT22;22327;51.208;6.418;2024-03-08T11:24:06;12.40;73.30
36292;DHT22;22327;51.208;6.418;2024-03-08T11:27:07;12.50;72.20
36292;DHT22;22327;51.208;6.418;2024-03-08T11:30:08;12.60;72.60
36292;DHT22;22327;51.208;6.418;2024-03-08T11:33:12;12.60;72.20
36292;DHT22;22327;51.208;6.418;2024-03-08T11:36:23;12.40;71.10
36292;DHT22;22327;51.208;6.418;2024-03-08T11:39:25;12.40;72.30
36292;DHT22;22327;51.208;6.418;2024-03-08T11:42:26;12.50;72.50
36292;DHT22;22327;51.208;6.418;2024-03-08T11:45:27;12.50;71.80
36292;DHT22;22327;51.208;6.418;2024-03-08T11:48:28;12.60;72.00
36292;DHT22;22327;51.208;6.418;2024-03-08T11:51:28;12.70;72.00
36292;DHT22;22327;51.208;6.418;2024-03-08T11:54:30;12.80;70.50
36292;DHT22;22327;51.208;6.418;2024-03-08T11:57:31;12.90;71.30
36292;DHT22;22327;51.208;6.418;2024-03-08T12:00:32;12.80;69.00
36292;DHT22;22327;51.208;6.418;2024-03-08T12:03:35;12.90;69.90
36292;DHT22;22327;51.208;6.418;2024-03-08T12:06:40;13.00;70.40
36292;DHT22;22327;51.208;6.418;2024-03-08T12:09:41;13.00;69.30
36292;DHT22;22327;51.208;6.418;2024-03-08T12:12:48;13.00;70.00
36292;DHT22;22327;51.208;6.418;2024-03-08T12:15:51;13.00;69.90
36292;DHT22;22327;51.208;6.418;2024-03-08T12:18:52;13.00;70.60
36292;DHT22;22327;51.208;6.418;2024-03-08T12:21:54;13.10;70.00
36292;DHT22;22327;51.208;6.418;2024-03-08T12:25:05;13.20;70.20
36292;DHT22;22327;51.208;6.418;2024-03-08T12:28:11;13.40;69.00
36292;DHT22;22327;51.208;6.418;2024-03-08T12:31:12;13.30;68.60
36292;DHT22;22327;51.208;6.418;2024-03-08T12:34:13;13.40;68.80
36292;DHT22;22327;51.208;6.418;2024-03-08T12:37:14;13.40;69.00
36292;DHT22;22327;51.208;6.418;2024-03-08T12:40:15;13.50;68.20
36292;DHT22;22327;51.208;6.418;2024-03-08T12:43:17;13.50;67.50
36292;DHT22;22327;51.208;6.418;2024-03-08T12:46:20;13.60;67.10
36292;DHT22;22327;51.208;6.418;2024-03-08T12:49:21;13.40;67.90
36292;DHT22;22327;51.208;6.418;2024-03-08T12:52:25;13.60;68.50
36292;DHT22;22327;51.208;6.418;2024-03-08T12:55:25;13.70;66.50
36292;DHT22;22327;51.208;6.418;2024-03-08T12:58:26;13.60;63.60
36292;DHT22;22327;51.208;6.418;2024-03-08T13:01:27;13.70;63.40
36292;DHT22;22327;51.208;6.418;2024-03-08T13:04:27;13.80;63.20
36292;DHT22;22327;51.208;6.418;2024-03-08T13:07:28;13.80;62.50
36292;DHT22;22327;51.208;6.418;2024-03-08T13:10:29;13.80;62.30
36292;DHT22;22327;51.208;6.418;2024-03-08T13:13:31;13.90;62.80
36292;DHT22;22327;51.208;6.418;2024-03-08T13:16:35;13.90;62.80
36292;DHT22;22327;51.208;6.418;2024-03-08T13:19:36;13.90;63.90
36292;DHT22;22327;51.208;6.418;2024-03-08T13:22:38;13.90;63.20
36292;DHT22;22327;51.208;6.418;2024-03-08T13:25:38;14.00;62.50
36292;DHT22;22327;51.208;6.418;2024-03-08T13:28:39;14.00;62.50
36292;DHT22;22327;51.208;6.418;2024-03-08T13:31:40;14.10;63.00
36292;DHT22;22327;51.208;6.418;2024-03-08T13:34:44;14.10;62.60
36292;DHT22;22327;51.208;6.418;2024-03-08T13:37:48;14.10;63.00
36292;DHT22;22327;51.208;6.418;2024-03-08T13:40:48;14.10;64.00
36292;DHT22;22327;51.208;6.418;2024-03-08T13:43:49;14.20;62.20
36292;DHT22;22327;51.208;6.418;2024-03-08T13:46:50;14.20;61.50
36292;DHT22;22327;51.208;6.418;2024-03-08T13:49:51;14.20;61.40
36292;DHT22;22327;51.208;6.418;2024-03-08T13:52:51;14.30;61.90
36292;DHT22;22327;51.208;6.418;2024-03-08T13:55:53;14.20;60.80
36292;DHT22;22327;51.208;6.418;2024-03-08T13:58:54;14.20;61.90
36292;DHT22;22327;51.208;6.418;2024-03-08T14:01:57;14.30;61.70
36292;DHT22;22327;51.208;6.418;2024-03-08T14:04:58;14.30;61.80
36292;DHT22;22327;51.208;6.418;2024-03-08T14:08:02;14.40;62.90
36292;DHT22;22327;51.208;6.418;2024-03-08T14:11:07;14.40;62.50
36292;DHT22;22327;51.208;6.418;2024-03-08T14:14:12;14.50;61.50
36292;DHT22;22327;51.208;6.418;2024-03-08T14:17:13;14.40;61.30
36292;DHT22;22327;51.208;6.418;2024-03-08T14:20:17;14.40;61.80
36292;DHT22;22327;51.208;6.418;2024-03-08T14:23:18;14.40;62.20
36292;DHT22;22327;51.208;6.418;2024-03-08T14:26:18;14.50;61.50
36292;DHT22;22327;51.208;6.418;2024-03-08T14:29:21;14.30;61.50
36292;DHT22;22327;51.208;6.418;2024-03-08T14:32:22;14.30;61.90
36292;DHT22;22327;51.208;6.418;2024-03-08T14:35:24;14.20;61.70
36292;DHT22;22327;51.208;6.418;2024-03-08T14:38:25;14.30;62.00
36292;DHT22;22327;51.208;6.418;2024-03-08T14:41:27;14.30;59.90
36292;DHT22;22327;51.208;6.418;2024-03-08T14:44:28;14.30;61.70
36292;DHT22;22327;51.208;6.418;2024-03-08T14:47:29;14.40;60.80
36292;DHT22;22327;51.208;6.418;2024-03-08T14:50:30;14.30;59.50
36292;DHT22;22327;51.208;6.418;2024-03-08T14:53:33;14.30;60.40
36292;DHT22;22327;51.208;6.418;2024-03-08T14:56:33;14.40;59.40
36292;DHT22;22327;51.208;6.418;2024-03-08T14:59:35;14.40;59.00
36292;DHT22;22327;51.208;6.418;2024-03-08T15:02:39;14.40;59.10
36292;DHT22;22327;51.208;6.418;2024-03-08T15:05:39;14.40;59.10
36292;DHT22;22327;51.208;6.418;2024-03-08T15:08:42;14.30;59.20
36292;DHT22;22327;51.208;6.418;2024-03-08T15:11:46;14.30;59.80
36292;DHT22;22327;51.208;6.418;2024-03-08T15:14:47;14.30;61.10
36292;DHT22;22327;51.208;6.418;2024-03-08T15:17:47;14.30;62.00
36292;DHT22;22327;51.208;6.418;2024-03-08T15:20:48;14.40;62.50
36292;DHT22;22327;51.208;6.418;2024-03-08T15:23:49;14.30;61.60
36292;DHT22;22327;51.208;6.418;2024-03-08T15:26:51;14.30;62.00
36292;DHT22;22327;51.208;6.418;2024-03-08T15:29:55;14.30;62.90
36292;DHT22;22327;51.208;6.418;2024-03-08T15:32:56;14.30;62.80
36292;DHT22;22327;51.208;6.418;2024-03-08T15:35:57;14.30;63.20
36292;DHT22;22327;51.208;6.418;2024-03-08T15:39:00;14.30;62.30
36292;DHT22;22327;51.208;6.418;2024-03-08T15:42:01;14.30;63.00
36292;DHT22;22327;51.208;6.418;2024-03-08T15:45:02;14.10;62.20
36292;DHT22;22327;51.208;6.418;2024-03-08T15:48:03;14.00;62.40
36292;DHT22;22327;51.208;6.418;2024-03-08T15:51:05;13.90;62.50
36292;DHT22;22327;51.208;6.418;2024-03-08T15:54:06;13.90;63.50
36292;DHT22;22327;51.208;6.418;2024-03-08T15:57:08;13.80;63.90
36292;DHT22;22327;51.208;6.418;2024-03-08T16:00:17;13.90;64.40
36292;DHT22;22327;51.208;6.418;2024-03-08T16:03:37;13.90;64.30
36292;DHT22;22327;51.208;6.418;2024-03-08T16:06:38;13.80;64.70
36292;DHT22;22327;51.208;6.418;2024-03-08T16:09:40;13.70;64.60
36292;DHT22;22327;51.208;6.418;2024-03-08T16:12:40;13.70;65.00
36292;DHT22;22327;51.208;6.418;2024-03-08T16:15:45;13.60;65.20
36292;DHT22;22327;51.208;6.418;2024-03-08T16:18:46;13.60;65.50
36292;DHT22;22327;51.208;6.418;2024-03-08T16:21:48;13.60;65.50
36292;DHT22;22327;51.208;6.418;2024-03-08T16:24:49;13.60;65.50
36292;DHT22;22327;51.208;6.418;2024-03-08T16:27:51;13.60;65.30
36292;DHT22;22327;51.208;6.418;2024-03-08T16:30:51;13.50;65.30
36292;DHT22;22327;51.208;6.418;2024-03-08T16:33:55;13.50;66.00
36292;DHT22;22327;51.208;6.418;2024-03-08T16:36:56;13.40;65.80
36292;DHT22;22327;51.208;6.418;2024-03-08T16:39:57;13.30;65.80
36292;DHT22;22327;51.208;6.418;2024-03-08T16:43:00;13.30;65.80
36292;DHT22;22327;51.208;6.418;2024-03-08T16:46:00;13.30;66.40
36292;DHT22;22327;51.208;6.418;2024-03-08T16:49:03;13.30;66.80
36292;DHT22;22327;51.208;6.418;2024-03-08T16:52:05;13.30;66.80
36292;DHT22;22327;51.208;6.418;2024-03-08T16:55:06;13.30;66.80
36292;DHT22;22327;51.208;6.418;2024-03-08T16:58:07;13.30;66.60
36292;DHT22;22327;51.208;6.418;2024-03-08T17:01:14;13.20;66.90
36292;DHT22;22327;51.208;6.418;2024-03-08T17:04:16;13.20;67.40
36292;DHT22;22327;51.208;6.418;2024-03-08T17:07:18;13.10;67.60
36292;DHT22;22327;51.208;6.418;2024-03-08T17:10:22;13.10;67.70
36292;DHT22;22327;51.208;6.418;2024-03-08T17:13:25;13.00;68.10
36292;DHT22;22327;51.208;6.418;2024-03-08T17:16:25;12.90;68.30
36292;DHT22;22327;51.208;6.418;2024-03-08T17:19:26;12.80;68.90
36292;DHT22;22327;51.208;6.418;2024-03-08T17:22:26;12.80;69.00
36292;DHT22;22327;51.208;6.418;2024-03-08T17:25:29;12.70;69.30
36292;DHT22;22327;51.208;6.418;2024-03-08T17:28:30;12.60;69.60
36292;DHT22;22327;51.208;6.418;2024-03-08T17:31:31;12.60;69.90
36292;DHT22;22327;51.208;6.418;2024-03-08T17:34:33;12.50;70.50
36292;DHT22;22327;51.208;6.418;2024-03-08T17:37:33;12.50;70.90
36292;DHT22;22327;51.208;6.418;2024-03-08T17:40:34;12.40;71.20
36292;DHT22;22327;51.208;6.418;2024-03-08T17:43:40;12.40;71.50
36292;DHT22;22327;51.208;6.418;2024-03-08T17:46:41;12.20;71.70
36292;DHT22;22327;51.208;6.418;2024-03-08T17:49:43;12.20;71.90
36292;DHT22;22327;51.208;6.418;2024-03-08T17:52:45;12.20;71.70
36292;DHT22;22327;51.208;6.418;2024-03-08T17:55:46;12.10;71.50
36292;DHT22;22327;51.208;6.418;2024-03-08T17:58:50;12.00;71.50
36292;DHT22;22327;51.208;6.418;2024-03-08T18:01:51;12.10;71.60
36292;DHT22;22327;51.208;6.418;2024-03-08T18:04:51;12.00;71.60
36292;DHT22;22327;51.208;6.418;2024-03-08T18:07:52;11.90;71.70
36292;DHT22;22327;51.208;6.418;2024-03-08T18:10:53;11.90;71.80
36292;DHT22;22327;51.208;6.418;2024-03-08T18:13:54;11.90;71.90
36292;DHT22;22327;51.208;6.418;2024-03-08T18:16:54;11.90;71.70
36292;DHT22;22327;51.208;6.418;2024-03-08T18:19:55;11.80;71.80
36292;DHT22;22327;51.208;6.418;2024-03-08T18:23:01;11.80;72.00
36292;DHT22;22327;51.208;6.418;2024-03-08T18:26:02;11.70;71.90
36292;DHT22;22327;51.208;6.418;2024-03-08T18:29:03;11.70;72.00
36292;DHT22;22327;51.208;6.418;2024-03-08T18:32:16;11.70;72.10
36292;DHT22;22327;51.208;6.418;2024-03-08T18:35:17;11.70;72.30
36292;DHT22;22327;51.208;6.418;2024-03-08T18:38:18;11.70;72.60
36292;DHT22;22327;51.208;6.418;2024-03-08T18:41:19;11.70;72.40
36292;DHT22;22327;51.208;6.418;2024-03-08T18:44:19;11.60;72.70
36292;DHT22;22327;51.208;6.418;2024-03-08T18:47:20;11.60;73.00
36292;DHT22;22327;51.208;6.418;2024-03-08T18:50:23;11.60;73.10
36292;DHT22;22327;51.208;6.418;2024-03-08T18:53:25;11.60;73.20
36292;DHT22;22327;51.208;6.418;2024-03-08T18:56:25;11.60;73.20
36292;DHT22;22327;51.208;6.418;2024-03-08T18:59:27;11.60;73.50
36292;DHT22;22327;51.208;6.418;2024-03-08T19:02:28;11.60;73.70
36292;DHT22;22327;51.208;6.418;2024-03-08T19:05:28;11.60;74.00
36292;DHT22;22327;51.208;6.418;2024-03-08T19:08:32;11.50;74.20
36292;DHT22;22327;51.208;6.418;2024-03-08T19:11:33;11.50;74.60
36292;DHT22;22327;51.208;6.418;2024-03-08T19:14:37;11.50;74.80
36292;DHT22;22327;51.208;6.418;2024-03-08T19:17:37;11.40;75.90